createdAt,value
2023-03-15T00:01:34.433Z,100.00
2023-03-15T00:04:05.971Z,100.00
2023-03-15T00:06:36.508Z,100.00
2023-03-15T00:09:07.342Z,100.00
2023-03-15T00:11:39.728Z,100.00
2023-03-15T00:14:09.561Z,100.00
2023-03-15T00:16:39.887Z,100.00
2023-03-15T00:19:09.683Z,100.00
2023-03-15T00:21:40.287Z,100.00
2023-03-15T00:24:10.482Z,100.00
2023-03-15T00:26:42.875Z,100.00
2023-03-15T00:29:12.661Z,100.00
2023-03-15T00:31:42.452Z,100.00
2023-03-15T00:34:13.890Z,100.00
2023-03-15T00:36:44.655Z,100.00
2023-03-15T00:39:15.404Z,100.00
2023-03-15T00:41:48.437Z,100.00
2023-03-15T00:44:18.368Z,100.00
2023-03-15T00:46:48.141Z,100.00
2023-03-15T00:49:18.349Z,100.00
2023-03-15T00:51:48.137Z,100.00
2023-03-15T00:54:17.884Z,100.00
2023-03-15T00:56:50.312Z,100.00
2023-03-15T00:59:22.095Z,100.00
2023-03-15T01:01:52.849Z,100.00
2023-03-15T01:04:25.236Z,100.00
2023-03-15T01:06:55.208Z,100.00
2023-03-15T01:09:25.004Z,100.00
2023-03-15T01:11:57.362Z,100.00
2023-03-15T01:14:27.410Z,100.00
2023-03-15T01:16:57.244Z,100.00
2023-03-15T01:19:27.022Z,100.00
2023-03-15T01:21:56.935Z,100.00
2023-03-15T01:24:26.666Z,100.00
2023-03-15T01:26:59.055Z,100.00
2023-03-15T01:29:28.833Z,100.00
2023-03-15T01:31:58.630Z,100.00
2023-03-15T01:34:28.494Z,100.00
2023-03-15T01:36:58.363Z,100.00
2023-03-15T01:39:34.643Z,100.00
2023-03-15T01:42:07.674Z,100.00
2023-03-15T01:44:56.479Z,100.00
2023-03-15T01:47:27.676Z,100.00
2023-03-15T01:50:07.580Z,100.00
2023-03-15T01:52:40.724Z,100.00
2023-03-15T01:55:17.753Z,100.00
2023-03-15T01:58:06.861Z,100.00
2023-03-15T02:00:40.154Z,100.00
2023-03-15T02:03:21.198Z,100.00
2023-03-15T02:05:57.296Z,100.00
2023-03-15T02:08:44.590Z,100.00
2023-03-15T02:11:14.795Z,100.00
2023-03-15T02:13:51.484Z,100.00
2023-03-15T02:16:23.264Z,100.00
2023-03-15T02:18:59.477Z,100.00
2023-03-15T02:21:39.654Z,100.00
2023-03-15T02:24:21.895Z,100.00
2023-03-15T02:26:56.415Z,100.00
2023-03-15T02:29:32.918Z,100.00
2023-03-15T02:32:04.612Z,100.00
2023-03-15T02:34:34.690Z,100.00
2023-03-15T02:37:05.916Z,100.00
2023-03-15T02:39:35.740Z,100.00
2023-03-15T02:42:05.684Z,100.00
2023-03-15T02:44:40.374Z,100.00
2023-03-15T02:47:15.948Z,100.00
2023-03-15T02:49:49.461Z,100.00
2023-03-15T02:52:20.435Z,100.00
2023-03-15T02:54:50.238Z,100.00
2023-03-15T02:57:21.761Z,100.00
2023-03-15T02:59:55.719Z,100.00
2023-03-15T03:02:26.195Z,100.00
2023-03-15T03:04:56.031Z,100.00
2023-03-15T03:07:25.828Z,100.00
2023-03-15T03:10:01.120Z,100.00
2023-03-15T03:12:34.700Z,100.00
2023-03-15T03:15:08.304Z,100.00
2023-03-15T03:17:38.646Z,100.00
2023-03-15T03:20:10.873Z,100.00
2023-03-15T03:22:47.065Z,100.00
2023-03-15T03:25:16.918Z,100.00
2023-03-15T03:27:46.925Z,100.00
2023-03-15T03:30:20.037Z,100.00
2023-03-15T03:32:54.171Z,100.00
2023-03-15T03:35:24.488Z,100.00
2023-03-15T03:37:54.686Z,100.00
2023-03-15T03:40:30.525Z,100.00
2023-03-15T03:43:00.656Z,100.00
2023-03-15T03:45:33.273Z,100.00
2023-03-15T03:48:03.689Z,100.00
2023-03-15T03:50:35.692Z,100.00
2023-03-15T03:53:05.435Z,100.00
2023-03-15T03:55:37.685Z,100.00
2023-03-15T03:58:07.469Z,100.00
2023-03-15T04:01:00.157Z,100.00
2023-03-15T04:03:33.739Z,100.00
2023-03-15T04:06:14.004Z,100.00
2023-03-15T04:08:47.350Z,100.00
2023-03-15T04:11:26.744Z,100.00
2023-03-15T04:14:02.772Z,100.00
2023-03-15T04:16:35.575Z,100.00
2023-03-15T04:19:08.810Z,100.00
2023-03-15T04:21:39.363Z,100.00
2023-03-15T04:24:29.388Z,100.00
2023-03-15T04:27:14.669Z,100.00
2023-03-15T04:30:05.960Z,100.00
2023-03-15T04:32:59.287Z,100.00
2023-03-15T04:35:47.742Z,100.00
2023-03-15T04:38:36.387Z,100.00
2023-03-15T04:41:21.437Z,100.00
2023-03-15T04:44:07.179Z,100.00
2023-03-15T04:46:58.271Z,100.00
2023-03-15T04:49:46.095Z,100.00
2023-03-15T04:52:37.886Z,100.00
2023-03-15T04:55:08.469Z,100.00
2023-03-15T04:57:58.376Z,100.00
2023-03-15T05:00:40.017Z,100.00
2023-03-15T05:03:25.807Z,100.00
2023-03-15T05:06:08.074Z,100.00
2023-03-15T05:08:48.007Z,100.00
2023-03-15T05:11:27.696Z,100.00
2023-03-15T05:14:16.819Z,100.00
2023-03-15T05:17:07.192Z,100.00
2023-03-15T05:19:57.320Z,100.00
2023-03-15T05:22:48.069Z,100.00
2023-03-15T05:25:34.052Z,100.00
2023-03-15T05:28:22.590Z,100.00
2023-03-15T05:31:10.663Z,100.00
2023-03-15T05:33:58.907Z,100.00
2023-03-15T05:36:35.444Z,100.00
2023-03-15T05:39:26.657Z,100.00
2023-03-15T05:41:59.039Z,100.00
2023-03-15T05:45:03.936Z,100.00
2023-03-15T05:47:57.596Z,100.00
2023-03-15T05:50:56.567Z,100.00
2023-03-15T05:53:36.307Z,100.00
2023-03-15T05:56:37.911Z,100.00
2023-03-15T05:59:21.816Z,100.00
2023-03-15T06:02:12.027Z,100.00
2023-03-15T06:04:53.435Z,100.00
2023-03-15T06:07:27.860Z,100.00
2023-03-15T06:09:57.697Z,100.00
2023-03-15T06:12:31.286Z,100.00
2023-03-15T06:15:01.036Z,100.00
2023-03-15T06:17:31.650Z,100.00
2023-03-15T06:20:01.424Z,100.00
2023-03-15T06:22:31.250Z,100.00
2023-03-15T06:25:05.297Z,100.00
2023-03-15T06:27:37.940Z,100.00
2023-03-15T06:30:09.327Z,100.00
2023-03-15T06:32:39.395Z,100.00
2023-03-15T06:35:10.221Z,100.00
2023-03-15T06:37:40.058Z,100.00
2023-03-15T06:40:11.951Z,100.00
2023-03-15T06:42:44.461Z,100.00
2023-03-15T06:45:16.470Z,100.00
2023-03-15T06:47:47.234Z,100.00
2023-03-15T06:50:18.518Z,100.00
2023-03-15T06:52:48.284Z,100.00
2023-03-15T06:55:18.817Z,100.00
2023-03-15T06:57:51.909Z,100.00
2023-03-15T07:00:22.656Z,100.00
2023-03-15T07:02:52.559Z,100.00
2023-03-15T07:05:22.403Z,100.00
2023-03-15T07:07:52.318Z,100.00
2023-03-15T07:10:22.464Z,100.00
2023-03-15T07:12:54.847Z,100.00
2023-03-15T07:15:24.775Z,100.00
2023-03-15T07:17:54.552Z,100.00
2023-03-15T07:20:24.572Z,100.00
2023-03-15T07:22:54.348Z,100.00
2023-03-15T07:25:25.973Z,100.00
2023-03-15T07:27:58.383Z,100.00
2023-03-15T07:30:28.591Z,100.00
2023-03-15T07:32:58.889Z,84.89
2023-03-15T07:35:29.211Z,96.26
2023-03-15T07:37:59.387Z,87.07
2023-03-15T07:40:29.687Z,78.47
2023-03-15T07:43:02.471Z,90.45
2023-03-15T07:45:34.057Z,84.95
2023-03-15T07:48:04.180Z,85.04
2023-03-15T07:50:34.309Z,82.59
2023-03-15T07:53:05.613Z,82.85
2023-03-15T07:55:35.897Z,84.41
2023-03-15T07:58:08.731Z,80.74
2023-03-15T08:00:38.894Z,76.38
2023-03-15T08:03:09.160Z,70.52
2023-03-15T08:05:40.072Z,63.36
2023-03-15T08:08:10.315Z,62.44
2023-03-15T08:10:40.459Z,59.92
2023-03-15T08:13:13.449Z,62.06
2023-03-15T08:15:43.725Z,59.96
2023-03-15T08:18:13.846Z,59.04
2023-03-15T08:20:43.979Z,59.72
2023-03-15T08:23:16.716Z,58.49
2023-03-15T08:25:47.406Z,60.69
2023-03-15T08:28:20.313Z,60.94
2023-03-15T08:30:50.501Z,58.72
2023-03-15T08:33:22.392Z,58.43
2023-03-15T08:35:54.883Z,56.83
2023-03-15T08:38:26.215Z,57.75
2023-03-15T08:40:58.701Z,53.35
2023-03-15T08:43:31.402Z,57.78
2023-03-15T08:46:02.114Z,56.21
2023-03-15T08:48:32.768Z,56.17
2023-03-15T08:51:05.237Z,58.23
2023-03-15T08:53:35.606Z,59.99
2023-03-15T08:56:05.921Z,58.58
2023-03-15T08:58:38.690Z,58.88
2023-03-15T09:01:08.899Z,54.97
2023-03-15T09:03:39.171Z,52.21
2023-03-15T09:06:09.595Z,48.78
2023-03-15T09:08:39.748Z,48.84
2023-03-15T09:11:10.605Z,46.71
2023-03-15T09:13:43.340Z,51.24
2023-03-15T09:16:13.526Z,57.17
2023-03-15T09:18:44.189Z,60.37
2023-03-15T09:21:14.452Z,58.07
2023-03-15T09:23:44.640Z,70.29
2023-03-15T09:26:15.323Z,60.96
2023-03-15T09:28:48.056Z,63.54
2023-03-15T09:31:18.266Z,64.35
2023-03-15T09:33:49.819Z,66.16
2023-03-15T09:36:19.973Z,65.56
2023-03-15T09:38:50.524Z,69.71
2023-03-15T09:41:23.529Z,64.13
2023-03-15T09:44:12.008Z,66.22
2023-03-15T09:46:44.683Z,71.94
2023-03-15T09:49:17.241Z,65.97
2023-03-15T09:51:51.040Z,65.22
2023-03-15T09:54:23.789Z,65.27
2023-03-15T09:56:57.787Z,71.92
2023-03-15T09:59:32.796Z,68.23
2023-03-15T10:02:04.466Z,65.67
2023-03-15T10:04:37.395Z,73.38
2023-03-15T10:07:09.772Z,67.60
2023-03-15T10:09:40.066Z,69.19
2023-03-15T10:12:13.024Z,65.61
2023-03-15T10:14:55.303Z,67.11
2023-03-15T10:17:31.087Z,63.78
2023-03-15T10:20:02.278Z,67.05
2023-03-15T10:22:36.389Z,65.84
2023-03-15T10:25:14.240Z,67.91
2023-03-15T10:27:46.021Z,69.50
2023-03-15T10:30:20.510Z,70.06
2023-03-15T10:32:53.639Z,68.25
2023-03-15T10:35:24.259Z,60.10
2023-03-15T10:37:54.825Z,58.26
2023-03-15T10:40:40.000Z,57.97
2023-03-15T10:43:16.100Z,58.01
2023-03-15T10:45:49.866Z,59.32
2023-03-15T10:48:21.023Z,63.78
2023-03-15T10:50:53.176Z,61.25
2023-03-15T10:53:25.657Z,58.73
2023-03-15T10:56:01.850Z,56.72
2023-03-15T10:58:34.672Z,56.55
2023-03-15T11:01:09.666Z,60.16
2023-03-15T11:03:40.336Z,54.84
2023-03-15T11:06:21.497Z,55.45
2023-03-15T11:08:51.693Z,53.56
2023-03-15T11:11:21.876Z,54.48
2023-03-15T11:14:01.232Z,51.30
2023-03-15T11:16:36.421Z,49.76
2023-03-15T11:19:13.457Z,50.72
2023-03-15T11:21:45.214Z,50.72
2023-03-15T11:24:27.432Z,51.23
2023-03-15T11:27:01.568Z,52.56
2023-03-15T11:29:32.896Z,53.74
2023-03-15T11:32:13.081Z,51.35
2023-03-15T11:34:45.194Z,54.42
2023-03-15T11:37:18.015Z,55.82
2023-03-15T11:39:53.702Z,58.12
2023-03-15T11:42:30.488Z,58.01
2023-03-15T11:45:04.124Z,61.99
2023-03-15T11:47:50.499Z,60.66
2023-03-15T11:50:20.889Z,60.15
2023-03-15T11:52:52.162Z,59.17
2023-03-15T11:55:23.526Z,63.28
2023-03-15T11:57:54.191Z,60.38
2023-03-15T12:00:49.180Z,61.45
2023-03-15T12:03:33.626Z,57.44
2023-03-15T12:06:07.025Z,58.48
2023-03-15T12:08:44.694Z,59.43
2023-03-15T12:11:15.163Z,61.97
2023-03-15T12:13:53.851Z,60.04
2023-03-15T12:16:24.740Z,61.96
2023-03-15T12:18:59.893Z,55.92
2023-03-15T12:21:35.045Z,57.73
2023-03-15T12:24:07.355Z,60.11
2023-03-15T12:26:42.937Z,59.05
2023-03-15T12:29:18.517Z,55.99
2023-03-15T12:31:53.307Z,55.70
2023-03-15T12:34:31.722Z,55.29
2023-03-15T12:37:04.158Z,52.70
2023-03-15T12:39:42.113Z,53.65
2023-03-15T12:42:16.588Z,52.16
2023-03-15T12:44:47.121Z,50.01
2023-03-15T12:47:17.339Z,50.88
2023-03-15T12:49:50.353Z,49.57
2023-03-15T12:52:44.484Z,48.22
2023-03-15T12:55:17.662Z,47.46
2023-03-15T12:57:53.992Z,49.09
2023-03-15T13:00:25.405Z,49.96
2023-03-15T13:03:02.193Z,50.45
2023-03-15T13:05:38.261Z,50.59
2023-03-15T13:08:10.580Z,50.52
2023-03-15T13:10:54.187Z,53.59
2023-03-15T13:13:45.406Z,53.57
2023-03-15T13:16:22.398Z,55.51
2023-03-15T13:18:57.629Z,56.28
2023-03-15T13:21:34.285Z,56.37
2023-03-15T13:24:05.263Z,65.46
2023-03-15T13:26:44.265Z,74.70
2023-03-15T13:29:17.795Z,80.66
2023-03-15T13:31:48.841Z,80.10
2023-03-15T13:34:19.745Z,81.55
2023-03-15T13:36:57.345Z,78.16
2023-03-15T13:39:28.472Z,76.73
2023-03-15T13:42:02.300Z,80.96
2023-03-15T13:44:33.023Z,79.15
2023-03-15T13:47:03.485Z,78.42
2023-03-15T13:49:34.328Z,79.90
2023-03-15T13:52:14.187Z,80.75
2023-03-15T13:54:45.746Z,80.68
2023-03-15T13:57:17.108Z,81.84
2023-03-15T13:59:48.451Z,81.42
2023-03-15T14:02:20.025Z,86.09
2023-03-15T14:04:54.014Z,85.07
2023-03-15T14:07:32.186Z,88.85
2023-03-15T14:10:17.463Z,93.05
2023-03-15T14:12:47.686Z,95.36
2023-03-15T14:15:20.003Z,89.39
2023-03-15T14:17:55.556Z,92.93
2023-03-15T14:20:29.652Z,95.72
2023-03-15T14:23:03.570Z,98.95
2023-03-15T14:25:37.159Z,100.00
2023-03-15T14:28:08.159Z,100.00
2023-03-15T14:30:39.437Z,100.00
2023-03-15T14:33:10.273Z,89.84
2023-03-15T14:35:46.196Z,90.93
2023-03-15T14:38:24.692Z,93.66
2023-03-15T14:40:55.721Z,96.65
2023-03-15T14:43:25.882Z,92.64
2023-03-15T14:45:56.914Z,91.53
2023-03-15T14:48:31.990Z,83.72
2023-03-15T14:51:02.193Z,85.26
2023-03-15T14:53:37.128Z,84.65
2023-03-15T14:56:07.560Z,80.74
2023-03-15T14:58:37.658Z,81.63
2023-03-15T15:01:08.147Z,85.22
2023-03-15T15:03:41.266Z,86.28
2023-03-15T15:06:13.469Z,90.19
2023-03-15T15:08:47.860Z,92.99
2023-03-15T15:11:18.199Z,93.32
2023-03-15T15:13:48.327Z,97.85
2023-03-15T15:16:18.673Z,100.00
2023-03-15T15:18:48.847Z,100.00
2023-03-15T15:21:22.322Z,100.00
2023-03-15T15:23:58.924Z,100.00
2023-03-15T15:26:30.007Z,100.00
2023-03-15T15:29:00.885Z,100.00
2023-03-15T15:31:33.720Z,100.00
2023-03-15T15:34:05.328Z,100.00
2023-03-15T15:36:36.846Z,100.00
2023-03-15T15:39:13.388Z,100.00
2023-03-15T15:41:43.595Z,100.00
2023-03-15T15:44:17.090Z,100.00
2023-03-15T15:46:47.247Z,100.00
2023-03-15T15:49:18.215Z,100.00
2023-03-15T15:51:50.196Z,100.00
2023-03-15T15:54:25.314Z,100.00
2023-03-15T15:56:56.409Z,100.00
2023-03-15T15:59:27.250Z,100.00
2023-03-15T16:02:02.443Z,100.00
2023-03-15T16:04:33.071Z,100.00
2023-03-15T16:07:04.978Z,100.00
2023-03-15T16:09:39.957Z,100.00
2023-03-15T16:12:14.998Z,100.00
2023-03-15T16:14:45.385Z,100.00
2023-03-15T16:17:17.486Z,100.00
2023-03-15T16:19:47.623Z,100.00
2023-03-15T16:22:18.027Z,100.00
2023-03-15T16:24:52.693Z,100.00
2023-03-15T16:27:25.982Z,100.00
2023-03-15T16:29:56.763Z,100.00
2023-03-15T16:32:41.408Z,100.00
2023-03-15T16:35:15.725Z,100.00
2023-03-15T16:37:46.559Z,100.00
2023-03-15T16:40:21.651Z,100.00
2023-03-15T16:42:52.076Z,100.00
2023-03-15T16:45:22.478Z,100.00
2023-03-15T16:47:52.821Z,100.00
2023-03-15T16:50:23.274Z,100.00
2023-03-15T16:52:54.938Z,100.00
2023-03-15T16:55:28.428Z,100.00
2023-03-15T16:57:59.770Z,100.00
2023-03-15T17:00:31.568Z,100.00
2023-03-15T17:03:03.294Z,100.00
2023-03-15T17:05:34.571Z,100.00
2023-03-15T17:08:04.806Z,100.00
2023-03-15T17:10:37.542Z,100.00
2023-03-15T17:13:07.989Z,100.00
2023-03-15T17:15:38.164Z,100.00
2023-03-15T17:18:09.102Z,100.00
2023-03-15T17:20:39.948Z,100.00
2023-03-15T17:23:10.220Z,100.00
2023-03-15T17:25:42.980Z,100.00
2023-03-15T17:28:13.337Z,100.00
2023-03-15T17:30:43.592Z,100.00
2023-03-15T17:33:14.345Z,100.00
2023-03-15T17:35:46.456Z,100.00
2023-03-15T17:38:21.976Z,100.00
2023-03-15T17:40:55.227Z,100.00
2023-03-15T17:43:26.784Z,100.00
2023-03-15T17:45:56.911Z,100.00
2023-03-15T17:48:27.109Z,100.00
2023-03-15T17:50:57.283Z,100.00
2023-03-15T17:53:27.817Z,100.00
2023-03-15T17:56:00.527Z,100.00
2023-03-15T17:58:31.232Z,100.00
2023-03-15T18:01:01.864Z,100.00
2023-03-15T18:03:32.844Z,100.00
2023-03-15T18:09:34.149Z,100.00
2023-03-15T18:16:23.044Z,100.00
2023-03-15T18:22:40.434Z,100.00
2023-03-15T18:25:13.632Z,100.00
2023-03-15T18:27:46.998Z,100.00
2023-03-15T18:30:18.850Z,100.00
2023-03-15T18:32:49.602Z,100.00
2023-03-15T18:35:25.858Z,100.00
2023-03-15T18:37:57.911Z,100.00
2023-03-15T18:40:29.795Z,100.00
2023-03-15T18:43:05.449Z,100.00
2023-03-15T18:45:36.870Z,100.00
2023-03-15T18:48:07.356Z,100.00
2023-03-15T18:50:38.377Z,100.00
2023-03-15T18:53:09.049Z,100.00
2023-03-15T18:55:39.670Z,100.00
2023-03-15T18:58:13.297Z,100.00
2023-03-15T19:00:44.778Z,100.00
2023-03-15T19:03:15.174Z,100.00
2023-03-15T19:05:45.847Z,100.00
2023-03-15T19:08:16.162Z,100.00
2023-03-15T19:10:47.341Z,100.00
2023-03-15T19:13:20.448Z,100.00
2023-03-15T19:15:51.105Z,100.00
2023-03-15T19:18:22.127Z,100.00
2023-03-15T19:20:54.776Z,100.00
2023-03-15T19:23:25.248Z,100.00
2023-03-15T19:25:56.016Z,100.00
2023-03-15T19:28:30.693Z,100.00
2023-03-15T19:31:01.332Z,100.00
2023-03-15T19:33:31.789Z,100.00
2023-03-15T19:36:02.751Z,100.00
2023-03-15T19:38:33.455Z,100.00
2023-03-15T19:41:05.383Z,100.00
2023-03-15T19:43:42.679Z,100.00
2023-03-15T19:46:14.024Z,100.00
2023-03-15T19:48:44.920Z,100.00
2023-03-15T19:51:16.692Z,100.00
2023-03-15T19:53:47.108Z,100.00
2023-03-15T19:56:18.129Z,100.00
2023-03-15T19:58:51.422Z,100.00
2023-03-15T20:01:21.780Z,100.00
2023-03-15T20:03:52.163Z,100.00
2023-03-15T20:06:22.896Z,100.00
2023-03-15T20:08:53.357Z,100.00
2023-03-15T20:11:25.538Z,100.00
2023-03-15T20:13:58.416Z,100.00
2023-03-15T20:16:29.107Z,100.00
2023-03-15T20:18:59.750Z,100.00
2023-03-15T20:21:30.680Z,100.00
2023-03-15T20:24:01.385Z,100.00
2023-03-15T20:26:32.038Z,100.00
2023-03-15T20:29:05.123Z,100.00
2023-03-15T20:31:35.827Z,100.00
2023-03-15T20:34:06.128Z,100.00
2023-03-15T20:36:36.737Z,100.00
2023-03-15T20:39:08.710Z,100.00
2023-03-15T20:41:39.216Z,100.00
2023-03-15T20:44:12.766Z,100.00
2023-03-15T20:46:44.127Z,100.00
2023-03-15T20:49:17.510Z,100.00
2023-03-15T20:51:48.122Z,100.00
2023-03-15T20:54:18.411Z,100.00
2023-03-15T20:56:52.907Z,100.00
2023-03-15T20:59:25.900Z,100.00
2023-03-15T21:01:56.254Z,100.00
2023-03-15T21:04:27.941Z,100.00
2023-03-15T21:07:04.489Z,100.00
2023-03-15T21:09:35.729Z,100.00
2023-03-15T21:12:08.405Z,100.00
2023-03-15T21:14:41.468Z,100.00
2023-03-15T21:17:13.402Z,100.00
2023-03-15T21:19:44.660Z,100.00
2023-03-15T21:22:15.287Z,100.00
2023-03-15T21:24:55.155Z,100.00
2023-03-15T21:27:26.644Z,100.00
2023-03-15T21:29:59.556Z,100.00
2023-03-15T21:32:29.887Z,100.00
2023-03-15T21:35:00.334Z,100.00
2023-03-15T21:37:30.810Z,100.00
2023-03-15T21:40:01.174Z,100.00
2023-03-15T21:42:32.325Z,100.00
2023-03-15T21:45:07.989Z,100.00
2023-03-15T21:47:38.749Z,100.00
2023-03-15T21:50:11.539Z,100.00
2023-03-15T21:52:42.278Z,100.00
2023-03-15T21:55:16.056Z,100.00
2023-03-15T21:57:47.218Z,100.00
2023-03-15T22:00:20.698Z,100.00
2023-03-15T22:02:55.708Z,100.00
2023-03-15T22:05:28.034Z,100.00
2023-03-15T22:07:58.373Z,100.00
2023-03-15T22:10:29.191Z,100.00
2023-03-15T22:12:59.644Z,100.00
2023-03-15T22:15:30.118Z,100.00
2023-03-15T22:18:03.253Z,100.00
2023-03-15T22:20:38.020Z,100.00
2023-03-15T22:23:08.777Z,100.00
2023-03-15T22:25:41.224Z,100.00
2023-03-15T22:28:11.912Z,100.00
2023-03-15T22:30:42.915Z,100.00
2023-03-15T22:33:16.053Z,100.00
2023-03-15T22:35:46.874Z,100.00
2023-03-15T22:38:17.432Z,100.00
2023-03-15T22:40:48.068Z,100.00
2023-03-15T22:43:18.433Z,100.00
2023-03-15T22:45:48.970Z,100.00
2023-03-15T22:48:23.078Z,100.00
2023-03-15T22:50:58.894Z,100.00
2023-03-15T22:53:30.117Z,100.00
2023-03-15T22:56:00.932Z,100.00
2023-03-15T22:58:31.480Z,100.00
2023-03-15T23:01:02.302Z,100.00
2023-03-15T23:03:35.576Z,100.00
2023-03-15T23:06:06.134Z,100.00
2023-03-15T23:08:36.586Z,100.00
2023-03-15T23:11:06.930Z,100.00
2023-03-15T23:13:37.455Z,100.00
2023-03-15T23:16:08.365Z,100.00
2023-03-15T23:18:42.179Z,100.00
2023-03-15T23:21:13.707Z,100.00
2023-03-15T23:23:45.337Z,100.00
2023-03-15T23:26:16.726Z,100.00
2023-03-15T23:28:47.007Z,100.00
2023-03-15T23:31:18.202Z,100.00
2023-03-15T23:33:51.206Z,100.00
2023-03-15T23:36:21.552Z,100.00
2023-03-15T23:38:53.640Z,100.00
2023-03-15T23:41:24.535Z,100.00
2023-03-15T23:43:54.905Z,100.00
2023-03-15T23:46:25.745Z,100.00
2023-03-15T23:48:58.898Z,100.00
2023-03-15T23:51:29.197Z,100.00
2023-03-15T23:53:59.661Z,100.00
2023-03-15T23:56:30.466Z,100.00
2023-03-15T23:59:01.602Z,100.00
